Time;durP1;ratioP1;P1;durP2;ratioP2;P2;SDS_P1;SDS_P2;PMS_P1;PMS_P2;Temp;Humidity;BMP_temperature;BMP_pressure;BME280_temperature;BME280_humidity;BME280_pressure;Samples;Min_cycle;Max_cycle;Signal;HPM_P1;HPM_P2
2024/04/19 00:01:50;;;;;;;28.60;24.10;;;;;;;2.94;80.28;96774.42;104763;1259;99257;-88
2024/04/19 00:04:16;;;;;;;25.70;22.80;;;;;;;2.96;80.19;96772.95;104791;1260;100466;-88
2024/04/19 00:06:42;;;;;;;26.50;22.00;;;;;;;2.97;80.21;96771.52;104375;1265;103573;-89
2024/04/19 00:09:09;;;;;;;26.70;23.70;;;;;;;2.98;80.24;96769.41;104926;1270;99315;-89
2024/04/19 00:11:35;;;;;;;29.70;23.00;;;;;;;2.99;80.24;96768.86;105393;1261;99321;-91
2024/04/19 00:14:02;;;;;;;25.70;22.70;;;;;;;3.00;80.05;96768.92;105650;1257;99228;-90
2024/04/19 00:16:28;;;;;;;26.60;22.50;;;;;;;3.03;80.01;96770.55;104973;1259;103943;-89
2024/04/19 00:18:54;;;;;;;25.80;21.70;;;;;;;3.04;80.13;96765.77;104658;1259;99969;-89
2024/04/19 00:21:22;;;;;;;25.40;21.30;;;;;;;3.03;80.10;96766.12;104668;1264;99269;-88
2024/04/19 00:23:48;;;;;;;26.90;22.50;;;;;;;3.01;80.12;96766.14;104697;1256;99345;-87
2024/04/19 00:26:14;;;;;;;26.90;22.90;;;;;;;3.02;80.22;96767.13;104782;1260;99445;-88
2024/04/19 00:28:41;;;;;;;23.90;21.40;;;;;;;3.01;80.36;96766.60;104623;1261;101011;-88
2024/04/19 00:31:08;;;;;;;25.60;21.50;;;;;;;3.01;80.34;96770.38;104590;1279;99782;-76
2024/04/19 00:33:35;;;;;;;26.10;21.10;;;;;;;3.01;80.31;96771.16;104662;1261;99301;-76
2024/04/19 00:36:01;;;;;;;25.00;20.30;;;;;;;3.00;80.24;96769.80;104676;1260;99272;-76
2024/04/19 00:38:28;;;;;;;25.20;21.50;;;;;;;3.04;80.24;96773.33;104801;1259;99339;-76
2024/04/19 00:40:55;;;;;;;25.20;22.00;;;;;;;3.05;80.33;96773.63;104678;1259;99260;-76
2024/04/19 00:43:21;;;;;;;23.30;20.80;;;;;;;3.08;80.30;96774.98;104712;1271;99417;-76
2024/04/19 00:45:47;;;;;;;24.10;21.40;;;;;;;3.09;80.23;96779.41;104653;1259;99437;-76
2024/04/19 00:48:17;;;;;;;24.20;21.60;;;;;;;3.11;80.11;96781.36;104688;1264;100635;-76
2024/04/19 00:50:45;;;;;;;25.00;21.80;;;;;;;3.10;80.06;96778.05;104690;1259;99355;-76
2024/04/19 00:53:15;;;;;;;25.00;22.20;;;;;;;3.10;79.94;96782.90;104706;1259;99263;-76
2024/04/19 00:55:42;;;;;;;26.30;23.10;;;;;;;3.10;79.94;96781.51;104663;1259;99660;-76
2024/04/19 00:58:09;;;;;;;27.10;22.70;;;;;;;3.08;79.99;96782.52;104696;1268;99339;-76
2024/04/19 01:00:36;;;;;;;25.10;22.40;;;;;;;3.06;79.92;96783.66;104659;1261;99329;-73
2024/04/19 01:03:02;;;;;;;27.70;23.60;;;;;;;3.08;80.02;96779.25;104657;1259;100620;-73
2024/04/19 01:05:29;;;;;;;28.90;24.10;;;;;;;3.05;80.02;96779.08;104723;1260;99618;-72
2024/04/19 01:07:55;;;;;;;29.10;24.20;;;;;;;3.01;80.10;96781.35;104777;1279;99235;-72
2024/04/19 01:10:22;;;;;;;26.70;22.70;;;;;;;2.98;80.16;96778.94;104680;1259;101323;-72
2024/04/19 01:12:49;;;;;;;27.80;24.40;;;;;;;2.96;80.29;96778.55;104642;1271;99271;-72
2024/04/19 01:15:16;;;;;;;26.60;23.50;;;;;;;2.95;80.35;96775.83;104661;1261;99295;-73
2024/04/19 01:17:42;;;;;;;26.60;23.50;;;;;;;2.95;80.46;96779.86;104679;1259;99798;-72
2024/04/19 01:20:09;;;;;;;29.50;24.40;;;;;;;2.93;80.51;96779.37;104743;1260;99253;-72
2024/04/19 01:22:36;;;;;;;27.70;23.90;;;;;;;2.89;80.57;96780.70;104654;1260;99832;-72
2024/04/19 01:25:05;;;;;;;27.60;23.60;;;;;;;2.87;80.65;96780.77;104657;1261;99292;-73
2024/04/19 01:27:31;;;;;;;26.90;24.00;;;;;;;2.83;80.66;96779.42;104661;1258;99772;-73
2024/04/19 01:29:57;;;;;;;29.50;25.00;;;;;;;2.83;80.66;96777.52;104560;1257;165030;-72
2024/04/19 01:32:24;;;;;;;27.80;24.00;;;;;;;2.85;80.73;96773.77;104678;1279;99269;-76
2024/04/19 01:34:50;;;;;;;26.60;23.10;;;;;;;2.84;80.69;96773.89;104707;1257;99616;-76
2024/04/19 01:37:17;;;;;;;30.70;23.30;;;;;;;2.82;80.79;96776.73;104679;1259;99269;-76
2024/04/19 01:39:43;;;;;;;30.80;25.40;;;;;;;2.82;80.91;96775.52;104734;1259;99459;-76
2024/04/19 01:42:10;;;;;;;28.10;23.80;;;;;;;2.80;80.99;96772.67;104671;1259;99426;-76
2024/04/19 01:44:36;;;;;;;29.30;25.70;;;;;;;2.83;81.01;96772.06;104730;1259;99262;-72
2024/04/19 01:47:03;;;;;;;28.00;24.40;;;;;;;2.86;80.85;96769.91;104683;1260;99713;-73
2024/04/19 01:49:29;;;;;;;26.20;22.60;;;;;;;2.89;80.75;96773.04;104709;1259;99355;-73
2024/04/19 01:51:57;;;;;;;30.30;24.40;;;;;;;2.92;80.71;96775.61;104777;1257;100575;-73
2024/04/19 01:54:24;;;;;;;25.80;23.10;;;;;;;2.97;80.63;96770.63;104675;1262;99178;-72
2024/04/19 01:56:52;;;;;;;30.10;23.80;;;;;;;2.98;80.71;96764.88;104746;1257;99356;-72
2024/04/19 01:59:19;;;;;;;25.90;22.20;;;;;;;3.00;80.55;96768.46;104744;1261;103972;-72
2024/04/19 02:01:46;;;;;;;25.50;22.70;;;;;;;3.00;80.51;96767.50;104661;1260;99345;-76
2024/04/19 02:04:12;;;;;;;28.80;23.90;;;;;;;3.03;80.50;96768.09;104655;1257;100618;-76
2024/04/19 02:06:38;;;;;;;28.10;23.20;;;;;;;3.06;80.53;96771.47;104770;1271;99280;-76
2024/04/19 02:09:05;;;;;;;29.10;23.80;;;;;;;3.10;80.54;96775.21;104703;1273;103400;-76
2024/04/19 02:11:31;;;;;;;25.40;21.40;;;;;;;3.13;80.43;96773.68;104648;1259;99308;-76
2024/04/19 02:13:57;;;;;;;28.80;22.10;;;;;;;3.13;80.30;96771.66;104685;1260;99268;-76
2024/04/19 02:16:24;;;;;;;25.80;21.90;;;;;;;3.16;80.29;96773.84;104746;1259;99273;-76
2024/04/19 02:18:50;;;;;;;26.90;22.30;;;;;;;3.17;80.31;96777.40;104707;1262;103986;-76
2024/04/19 02:21:16;;;;;;;26.00;22.90;;;;;;;3.14;80.20;96778.96;104694;1259;99302;-76
2024/04/19 02:23:43;;;;;;;25.70;21.20;;;;;;;3.12;80.20;96779.42;104643;1270;99355;-76
2024/04/19 02:26:10;;;;;;;24.70;21.70;;;;;;;3.09;80.16;96772.98;104712;1259;99177;-76
2024/04/19 02:31:23;;;;;;;25.90;21.50;;;;;;;3.09;80.20;96775.71;104761;1259;100357;-76
2024/04/19 02:33:50;;;;;;;27.00;20.90;;;;;;;3.05;80.30;96772.92;104644;1261;99266;-76
2024/04/19 02:36:16;;;;;;;21.60;18.80;;;;;;;3.02;80.29;96769.46;104649;1259;100674;-76
2024/04/19 02:38:43;;;;;;;22.10;18.80;;;;;;;3.01;80.31;96769.23;104803;1256;99349;-76
2024/04/19 02:41:09;;;;;;;24.70;20.00;;;;;;;3.00;80.35;96766.50;104660;1279;101198;-76
2024/04/19 02:43:36;;;;;;;24.90;19.90;;;;;;;2.94;80.39;96764.30;104664;1257;100610;-76
2024/04/19 02:46:03;;;;;;;22.20;19.80;;;;;;;2.86;80.50;96763.34;104708;1260;99260;-77
2024/04/19 02:48:30;;;;;;;22.70;20.30;;;;;;;2.83;80.60;96765.46;104715;1259;99295;-77
2024/04/19 02:50:56;;;;;;;22.60;20.10;;;;;;;2.81;80.71;96767.30;104744;1262;101958;-77
2024/04/19 02:53:23;;;;;;;22.50;20.10;;;;;;;2.78;80.83;96758.36;104678;1260;99272;-78
2024/04/19 02:55:52;;;;;;;24.90;20.70;;;;;;;2.79;80.78;96759.20;104753;1272;99270;-78
2024/04/19 02:58:19;;;;;;;24.00;21.10;;;;;;;2.80;81.02;96752.89;104676;1261;99206;-78
2024/04/19 03:00:45;;;;;;;26.10;21.50;;;;;;;2.83;81.09;96754.64;104674;1259;99332;-87
2024/04/19 03:03:11;;;;;;;25.80;21.60;;;;;;;2.84;81.05;96754.26;104615;1262;99392;-88
2024/04/19 03:05:38;;;;;;;30.50;24.20;;;;;;;2.85;81.05;96757.89;104761;1261;99354;-87
2024/04/19 03:08:05;;;;;;;37.10;28.00;;;;;;;2.85;81.15;96755.79;104596;1268;99721;-87
2024/04/19 03:10:31;;;;;;;34.80;28.20;;;;;;;2.85;81.19;96757.18;104623;1257;99352;-88
2024/04/19 03:12:58;;;;;;;35.10;28.30;;;;;;;2.86;81.20;96760.08;104677;1259;99344;-88
2024/04/19 03:15:24;;;;;;;33.80;27.40;;;;;;;2.87;81.29;96757.50;104729;1257;100172;-88
2024/04/19 03:17:51;;;;;;;33.80;27.60;;;;;;;2.88;81.31;96756.90;104643;1261;99807;-73
2024/04/19 03:20:17;;;;;;;32.60;25.60;;;;;;;2.87;81.40;96757.17;104705;1257;99320;-73
2024/04/19 03:22:43;;;;;;;28.50;24.00;;;;;;;2.86;81.47;96758.75;104663;1260;99279;-72
2024/04/19 03:25:10;;;;;;;27.70;22.90;;;;;;;2.87;81.67;96758.80;104727;1259;99243;-73
2024/04/19 03:27:36;;;;;;;26.30;22.50;;;;;;;2.87;81.73;96757.30;104369;1280;99811;-74
2024/04/19 03:30:03;;;;;;;29.10;23.70;;;;;;;2.88;81.76;96757.00;104671;1279;99305;-73
2024/04/19 03:32:29;;;;;;;29.10;24.60;;;;;;;2.88;81.79;96758.21;104654;1257;99953;-72
2024/04/19 03:34:55;;;;;;;30.00;25.20;;;;;;;2.88;81.88;96759.29;104668;1257;99273;-72
2024/04/19 03:37:22;;;;;;;27.40;22.60;;;;;;;2.89;81.92;96760.48;104666;1257;99164;-72
2024/04/19 03:39:48;;;;;;;27.50;23.10;;;;;;;2.89;81.96;96759.60;104748;1270;99379;-72
2024/04/19 03:42:18;;;;;;;23.40;20.30;;;;;;;2.91;81.97;96760.39;104834;1257;99297;-89
2024/04/19 03:47:35;;;;;;;19.90;17.20;;;;;;;2.90;81.83;96759.94;105483;1259;100360;-91
2024/04/19 03:50:01;;;;;;;17.90;14.60;;;;;;;2.90;81.68;96761.98;106010;1259;99330;-91
2024/04/19 03:52:27;;;;;;;18.10;14.80;;;;;;;2.92;81.53;96764.05;105723;1259;99294;-90
2024/04/19 03:54:55;;;;;;;18.60;15.50;;;;;;;2.97;81.43;96767.76;105746;1257;99062;-89
2024/04/19 03:57:21;;;;;;;17.50;13.90;;;;;;;2.99;81.37;96766.73;105110;1260;99610;-89
2024/04/19 03:59:47;;;;;;;16.80;14.00;;;;;;;3.02;81.21;96768.23;104696;1260;99189;-72
2024/04/19 04:02:14;;;;;;;15.40;13.60;;;;;;;3.02;81.02;96765.83;104659;1259;99262;-72
2024/04/19 04:04:40;;;;;;;13.90;12.30;;;;;;;3.04;80.88;96768.61;104686;1259;99240;-73
2024/04/19 04:07:06;;;;;;;13.90;11.20;;;;;;;3.07;80.62;96766.12;104638;1273;99350;-73
2024/04/19 04:09:33;;;;;;;13.90;12.30;;;;;;;3.06;80.37;96763.80;104672;1255;99330;-74
2024/04/19 04:11:59;;;;;;;14.90;12.70;;;;;;;3.03;80.18;96768.77;104813;1257;99251;-73
2024/04/19 04:14:25;;;;;;;14.70;12.90;;;;;;;3.03;80.05;96770.67;104714;1259;100629;-73
2024/04/19 04:16:52;;;;;;;13.70;12.20;;;;;;;3.04;80.19;96768.11;104673;1262;99298;-76
2024/04/19 04:19:18;;;;;;;13.90;12.40;;;;;;;3.07;80.20;96770.30;104796;1260;99350;-73
2024/04/19 04:21:44;;;;;;;13.70;12.20;;;;;;;3.07;80.14;96770.30;104666;1260;99375;-73
2024/04/19 04:24:11;;;;;;;13.10;11.70;;;;;;;3.11;80.03;96773.00;104686;1257;99634;-73
2024/04/19 04:26:37;;;;;;;14.40;11.20;;;;;;;3.14;80.02;96772.46;104637;1261;99285;-73
2024/04/19 04:29:03;;;;;;;17.00;12.10;;;;;;;3.16;79.71;96774.00;104630;1263;99277;-73
2024/04/19 04:31:30;;;;;;;11.90;10.60;;;;;;;3.14;79.69;96768.12;104613;1270;99239;-76
2024/04/19 04:33:56;;;;;;;13.20;11.40;;;;;;;3.15;79.57;96772.32;104669;1280;99304;-76
2024/04/19 04:36:22;;;;;;;12.90;11.30;;;;;;;3.11;79.45;96771.54;104583;1258;100600;-76
2024/04/19 04:38:49;;;;;;;12.60;10.90;;;;;;;3.10;79.41;96774.70;104670;1273;99238;-76
2024/04/19 04:41:15;;;;;;;16.40;13.90;;;;;;;3.10;79.43;96780.08;104684;1260;99430;-76
2024/04/19 04:43:42;;;;;;;15.70;13.50;;;;;;;3.13;79.43;96776.52;104744;1271;99272;-76
2024/04/19 04:46:08;;;;;;;13.10;11.70;;;;;;;3.15;79.33;96778.52;104658;1259;99622;-76
2024/04/19 04:48:35;;;;;;;11.80;10.60;;;;;;;3.17;79.19;96778.10;104645;1257;99243;-76
2024/04/19 04:51:01;;;;;;;18.00;12.80;;;;;;;3.17;79.00;96778.27;104706;1276;99307;-76
2024/04/19 04:53:27;;;;;;;18.90;16.80;;;;;;;3.17;79.00;96778.90;104717;1259;100586;-76
2024/04/19 04:55:54;;;;;;;16.90;15.20;;;;;;;3.16;78.89;96778.58;104691;1260;102838;-76
2024/04/19 04:58:20;;;;;;;16.40;13.80;;;;;;;3.16;78.83;96777.20;104713;1259;99326;-79
2024/04/19 05:00:47;;;;;;;17.10;13.60;;;;;;;3.16;78.84;96774.68;104696;1260;99381;-89
2024/04/19 05:03:14;;;;;;;15.90;13.40;;;;;;;3.18;78.88;96775.16;104664;1273;99299;-87
2024/04/19 05:05:40;;;;;;;17.00;14.10;;;;;;;3.21;78.99;96777.60;104701;1260;99259;-87
2024/04/19 05:08:07;;;;;;;16.10;13.10;;;;;;;3.27;79.00;96772.91;104690;1264;99885;-88
2024/04/19 05:10:33;;;;;;;16.10;12.50;;;;;;;3.33;78.87;96770.09;104576;1262;99287;-88
2024/04/19 05:12:59;;;;;;;15.40;13.60;;;;;;;3.35;78.75;96768.55;104606;1262;99285;-88
2024/04/19 05:15:26;;;;;;;16.20;14.20;;;;;;;3.39;78.71;96768.39;104775;1261;99333;-87
2024/04/19 05:17:52;;;;;;;18.10;13.60;;;;;;;3.45;78.85;96766.07;104648;1257;99780;-79
2024/04/19 05:20:19;;;;;;;13.70;12.10;;;;;;;3.48;78.84;96762.34;104616;1273;100483;-80
2024/04/19 05:22:45;;;;;;;16.10;13.10;;;;;;;3.48;78.58;96764.48;104527;1257;99664;-79
2024/04/19 05:25:11;;;;;;;15.60;13.90;;;;;;;3.49;78.44;96767.61;104655;1261;100566;-78
2024/04/19 05:27:38;;;;;;;16.50;12.90;;;;;;;3.48;78.32;96766.98;104647;1259;99790;-79
2024/04/19 05:30:05;;;;;;;15.70;14.10;;;;;;;3.47;78.22;96764.79;104636;1259;99338;-79
2024/04/19 05:32:32;;;;;;;14.00;12.40;;;;;;;3.49;78.38;96762.56;104710;1259;99339;-88
2024/04/19 05:34:58;;;;;;;16.60;13.60;;;;;;;3.54;78.40;96763.06;104610;1279;99349;-88
2024/04/19 05:37:24;;;;;;;16.40;12.90;;;;;;;3.59;78.45;96758.77;105539;1257;99352;-94
2024/04/19 05:39:51;;;;;;;17.60;12.10;;;;;;;3.61;78.35;96759.39;108320;1256;103946;-95
2024/04/19 05:42:17;;;;;;;14.90;11.60;;;;;;;3.66;78.42;96759.42;108408;1259;100067;-94
2024/04/19 05:44:44;;;;;;;15.50;11.90;;;;;;;3.71;78.45;96754.45;108057;1257;98331;-95
2024/04/19 06:29:29;;;;;;;8.30;6.60;;;;;;;4.95;73.94;96739.41;82334;1284;99904;-87
2024/04/19 06:31:56;;;;;;;10.30;7.00;;;;;;;5.04;73.97;96740.90;104948;1261;99229;-88
2024/04/19 06:34:22;;;;;;;9.20;6.30;;;;;;;5.11;73.44;96742.40;104591;1256;99241;-73
2024/04/19 06:36:48;;;;;;;7.80;5.60;;;;;;;5.15;73.20;96742.48;104625;1262;99280;-73
2024/04/19 06:39:23;;;;;;;8.60;5.90;;;;;;;5.23;73.29;96738.91;104696;1279;99275;-74
2024/04/19 06:41:49;;;;;;;7.80;5.20;;;;;;;5.31;73.13;96737.28;104810;1257;99340;-73
2024/04/19 06:44:16;;;;;;;9.10;5.10;;;;;;;5.36;72.77;96731.56;104705;1273;99327;-73
2024/04/19 06:46:42;;;;;;;10.80;7.40;;;;;;;5.40;72.40;96728.71;104650;1257;99388;-73
2024/04/19 06:49:09;;;;;;;7.60;5.60;;;;;;;5.47;72.53;96730.52;104718;1270;99269;-73
2024/04/19 06:51:35;;;;;;;9.10;4.40;;;;;;;5.57;72.39;96730.46;104648;1259;99259;-73
2024/04/19 06:54:01;;;;;;;5.20;3.90;;;;;;;5.63;70.80;96730.05;104746;1270;99264;-73
2024/04/19 06:56:28;;;;;;;4.90;3.90;;;;;;;5.65;70.49;96722.16;104697;1260;99304;-73
2024/04/19 06:58:54;;;;;;;7.00;3.90;;;;;;;5.65;69.60;96723.48;104715;1260;99299;-73
2024/04/19 07:01:21;;;;;;;7.40;4.50;;;;;;;5.71;70.37;96718.61;104658;1260;99340;-74
2024/04/19 07:03:51;;;;;;;6.70;4.20;;;;;;;5.84;70.63;96719.84;104736;1256;99192;-73
2024/04/19 07:06:17;;;;;;;5.40;3.80;;;;;;;5.90;70.71;96721.05;104679;1273;104890;-74
2024/04/19 07:08:44;;;;;;;6.00;4.80;;;;;;;5.99;70.77;96715.77;104718;1257;100561;-74
2024/04/19 07:11:10;;;;;;;12.70;7.30;;;;;;;6.11;70.64;96709.36;104674;1261;99236;-89
2024/04/19 07:13:36;;;;;;;5.90;4.40;;;;;;;6.22;70.47;96705.07;104853;1259;99334;-90
2024/04/19 07:16:03;;;;;;;5.00;3.90;;;;;;;6.31;70.52;96702.78;104700;1260;104835;-81
2024/04/19 07:18:29;;;;;;;4.60;3.70;;;;;;;6.38;70.35;96697.02;104648;1272;99263;-80
2024/04/19 07:20:55;;;;;;;7.30;5.10;;;;;;;6.44;70.23;96696.71;104636;1259;99275;-81
2024/04/19 07:23:22;;;;;;;5.40;4.40;;;;;;;6.47;69.80;96701.02;104739;1260;100629;-80
2024/04/19 07:25:49;;;;;;;6.60;4.20;;;;;;;6.50;69.50;96697.17;104685;1273;105006;-82
2024/04/19 07:28:16;;;;;;;6.30;3.90;;;;;;;6.57;69.33;96692.66;104629;1259;99260;-81
2024/04/19 07:30:43;;;;;;;10.50;6.60;;;;;;;6.67;69.15;96691.85;104694;1257;99254;-80
2024/04/19 07:33:10;;;;;;;4.90;3.70;;;;;;;6.76;68.89;96684.40;104673;1260;99320;-81
2024/04/19 07:35:37;;;;;;;9.30;4.90;;;;;;;6.81;68.21;96685.18;104739;1259;100470;-80
2024/04/19 07:38:04;;;;;;;9.40;4.80;;;;;;;6.83;67.90;96683.24;104724;1257;99192;-80
2024/04/19 07:40:33;;;;;;;4.80;3.70;;;;;;;7.07;67.85;96680.56;104732;1258;99471;-80
2024/04/19 07:42:59;;;;;;;6.20;3.70;;;;;;;7.50;67.28;96671.96;104715;1259;100597;-78
2024/04/19 07:45:26;;;;;;;5.60;3.30;;;;;;;7.95;65.63;96664.86;104717;1257;99346;-78
2024/04/19 07:47:53;;;;;;;9.00;4.00;;;;;;;8.40;65.60;96656.42;104654;1260;100570;-78
2024/04/19 07:50:20;;;;;;;4.40;3.10;;;;;;;8.84;64.94;96655.52;104633;1275;99270;-74
2024/04/19 07:52:50;;;;;;;3.40;2.70;;;;;;;9.21;64.07;96651.73;104636;1263;99330;-74
2024/04/19 07:55:17;;;;;;;4.40;2.80;;;;;;;9.72;63.33;96649.73;104673;1259;100575;-74
2024/04/19 07:57:50;;;;;;;3.50;2.80;;;;;;;10.12;62.50;96652.75;104645;1258;99267;-75
2024/04/19 08:00:21;;;;;;;3.40;2.50;;;;;;;10.16;60.32;96649.84;104651;1257;101344;-74
2024/04/19 08:02:48;;;;;;;3.30;2.50;;;;;;;10.35;59.49;96643.05;104875;1261;100619;-87
2024/04/19 08:05:14;;;;;;;3.00;2.50;;;;;;;10.20;59.38;96646.03;104686;1259;99358;-89
2024/04/19 08:07:40;;;;;;;4.20;2.90;;;;;;;9.98;59.49;96647.70;104667;1268;99272;-88
2024/04/19 08:10:07;;;;;;;5.80;3.90;;;;;;;9.84;59.41;96643.34;104884;1259;99770;-87
2024/04/19 08:12:33;;;;;;;4.60;3.40;;;;;;;9.58;59.75;96638.86;104795;1259;99958;-86
2024/04/19 08:15:00;;;;;;;8.40;4.00;;;;;;;9.29;58.78;96637.95;104793;1259;99262;-87
2024/04/19 08:17:26;;;;;;;9.30;3.90;;;;;;;8.96;58.81;96636.46;104671;1259;99276;-77
2024/04/19 08:19:52;;;;;;;8.80;4.00;;;;;;;8.75;59.00;96638.83;104695;1273;99263;-78
2024/04/19 08:22:19;;;;;;;6.50;3.80;;;;;;;8.56;58.76;96637.88;104648;1260;99967;-78
2024/04/19 08:24:45;;;;;;;6.60;3.80;;;;;;;8.40;59.72;96634.76;104645;1258;99246;-78
2024/04/19 08:27:11;;;;;;;4.30;3.60;;;;;;;8.54;59.45;96633.79;104649;1259;99325;-78
2024/04/19 08:29:38;;;;;;;5.10;3.00;;;;;;;9.17;59.53;96629.05;104696;1257;99301;-78
2024/04/19 08:32:06;;;;;;;7.40;4.00;;;;;;;9.92;59.52;96625.41;104741;1259;100137;-89
2024/04/19 08:34:32;;;;;;;4.60;3.30;;;;;;;10.52;58.86;96617.88;104660;1256;99189;-87
2024/04/19 08:36:58;;;;;;;3.70;3.00;;;;;;;10.56;58.17;96614.55;104859;1259;100495;-86
2024/04/19 08:39:25;;;;;;;4.80;3.00;;;;;;;10.42;58.15;96616.23;104655;1270;99247;-87
2024/04/19 08:41:55;;;;;;;5.20;3.50;;;;;;;10.30;57.67;96616.04;104768;1260;99250;-87
2024/04/19 08:44:24;;;;;;;3.70;2.70;;;;;;;10.12;57.25;96607.45;104684;1260;99231;-88
2024/04/19 08:46:54;;;;;;;4.90;3.10;;;;;;;10.02;56.55;96608.98;104974;1257;99248;-79
2024/04/19 08:49:22;;;;;;;4.80;3.20;;;;;;;9.86;56.43;96612.50;104749;1257;104401;-74
2024/04/19 08:51:51;;;;;;;4.90;3.30;;;;;;;9.72;56.78;96615.40;104724;1257;101649;-75
2024/04/19 08:54:17;;;;;;;5.20;3.10;;;;;;;9.56;56.09;96615.63;104676;1259;99294;-74
2024/04/19 08:56:45;;;;;;;4.90;2.70;;;;;;;9.36;56.30;96620.85;104650;1260;99308;-74
2024/04/19 08:59:13;;;;;;;2.50;2.20;;;;;;;9.17;56.64;96616.41;104708;1260;99210;-74
2024/04/19 09:01:39;;;;;;;4.80;3.40;;;;;;;9.08;57.00;96614.63;104702;1273;99295;-74
2024/04/19 09:04:06;;;;;;;4.10;3.20;;;;;;;9.25;57.20;96615.75;104701;1259;99189;-74
2024/04/19 09:06:33;;;;;;;5.20;3.40;;;;;;;9.84;57.82;96617.78;104683;1257;100574;-71
2024/04/19 09:09:00;;;;;;;4.80;3.20;;;;;;;10.53;57.74;96613.73;104656;1260;99344;-71
2024/04/19 09:11:26;;;;;;;3.50;2.80;;;;;;;11.02;56.30;96611.36;104641;1260;100584;-72
2024/04/19 09:13:52;;;;;;;3.70;2.90;;;;;;;10.92;55.51;96608.95;104663;1257;99261;-71
2024/04/19 09:16:19;;;;;;;4.00;2.70;;;;;;;10.74;55.83;96612.67;104722;1272;99387;-75
2024/04/19 09:18:49;;;;;;;5.90;3.00;;;;;;;10.57;55.34;96609.80;104675;1257;100603;-75
2024/04/19 09:21:17;;;;;;;6.70;3.50;;;;;;;10.33;55.40;96611.05;104689;1259;103942;-74
2024/04/19 09:23:43;;;;;;;6.10;2.90;;;;;;;10.09;54.96;96614.14;104649;1260;99340;-74
2024/04/19 09:26:09;;;;;;;7.00;2.90;;;;;;;9.81;55.48;96617.83;104636;1260;99299;-74
2024/04/19 09:28:37;;;;;;;4.50;2.90;;;;;;;9.59;56.08;96614.11;104609;1257;99329;-74
2024/04/19 09:31:05;;;;;;;3.90;2.30;;;;;;;9.41;56.60;96610.45;104703;1259;99373;-73
2024/04/19 09:33:31;;;;;;;3.30;2.70;;;;;;;9.31;57.00;96613.52;104623;1268;99302;-74
2024/04/19 09:35:57;;;;;;;3.40;2.50;;;;;;;9.21;56.95;96612.52;104763;1259;99352;-75
2024/04/19 09:38:24;;;;;;;4.90;2.70;;;;;;;9.11;56.94;96607.84;104695;1260;99257;-75
2024/04/19 09:40:50;;;;;;;3.40;2.40;;;;;;;9.05;56.91;96603.55;104919;1259;99186;-75
2024/04/19 09:43:22;;;;;;;4.90;2.90;;;;;;;9.03;57.30;96595.87;104680;1260;100592;-75
2024/04/19 09:45:56;;;;;;;4.10;3.00;;;;;;;9.10;57.46;96594.93;104632;1259;100373;-86
2024/04/19 09:48:30;;;;;;;6.40;2.80;;;;;;;9.21;57.38;96593.70;104627;1257;99899;-89
2024/04/19 09:51:00;;;;;;;3.70;2.10;;;;;;;9.29;57.32;96588.58;104673;1259;99167;-88
2024/04/19 09:53:34;;;;;;;5.20;2.30;;;;;;;9.33;56.66;96580.67;104649;1257;99366;-86
2024/04/19 09:56:34;;;;;;;3.70;2.50;;;;;;;9.37;56.62;96578.87;104673;1261;105027;-87
2024/04/19 09:59:01;;;;;;;2.90;1.80;;;;;;;9.43;55.90;96577.64;104613;1259;100536;-86
2024/04/19 10:01:28;;;;;;;3.90;1.60;;;;;;;9.50;55.95;96572.19;104665;1259;99287;-88
2024/04/19 10:03:56;;;;;;;1.80;1.70;;;;;;;9.57;55.53;96570.56;104661;1257;99259;-88
2024/04/19 10:06:25;;;;;;;3.30;1.90;;;;;;;9.59;55.20;96564.31;104764;1259;100648;-73
2024/04/19 10:08:53;;;;;;;2.50;1.60;;;;;;;9.59;54.76;96558.18;104691;1269;103907;-72
2024/04/19 10:11:19;;;;;;;4.80;2.10;;;;;;;9.62;54.73;96552.02;104672;1259;99279;-73
2024/04/19 10:13:46;;;;;;;4.10;1.90;;;;;;;9.71;55.25;96548.66;104659;1270;99253;-74
2024/04/19 10:16:12;;;;;;;4.10;2.40;;;;;;;9.74;53.07;96546.85;104659;1259;99697;-72
2024/04/19 10:18:41;;;;;;;4.20;2.10;;;;;;;9.74;53.32;96542.05;104766;1259;100575;-72
2024/04/19 10:21:08;;;;;;;4.00;1.60;;;;;;;9.85;53.58;96537.63;104625;1260;100594;-73
2024/04/19 10:23:39;;;;;;;2.20;1.80;;;;;;;9.98;53.40;96534.67;104614;1259;99282;-75
2024/04/19 10:26:06;;;;;;;2.20;1.40;;;;;;;10.18;52.56;96524.93;104665;1270;99238;-75
2024/04/19 10:28:32;;;;;;;3.10;1.70;;;;;;;10.46;52.25;96517.70;104676;1257;99187;-75
2024/04/19 10:30:59;;;;;;;2.30;1.80;;;;;;;10.91;52.24;96510.98;104701;1260;99282;-73
2024/04/19 10:33:26;;;;;;;4.10;2.00;;;;;;;11.45;51.74;96503.89;104708;1260;100476;-73
2024/04/19 10:35:52;;;;;;;2.20;1.70;;;;;;;11.60;50.59;96496.05;104735;1260;100574;-73
2024/04/19 10:38:20;;;;;;;3.50;1.90;;;;;;;11.52;49.68;96495.18;104726;1269;99925;-73
2024/04/19 10:40:46;;;;;;;1.90;1.60;;;;;;;11.37;49.73;96493.52;104711;1270;99330;-73
2024/04/19 10:43:13;;;;;;;3.90;1.80;;;;;;;11.23;49.42;96482.96;104682;1259;99238;-73
2024/04/19 10:45:39;;;;;;;1.90;1.50;;;;;;;11.18;49.00;96479.84;104704;1260;99312;-75
2024/04/19 10:48:06;;;;;;;3.20;1.80;;;;;;;11.10;49.00;96473.23;104673;1259;99769;-75
2024/04/19 10:50:34;;;;;;;5.80;1.60;;;;;;;11.03;49.07;96469.41;104651;1260;99192;-75
2024/04/19 10:53:00;;;;;;;2.80;1.60;;;;;;;11.01;48.83;96461.39;104754;1275;100480;-75
2024/04/19 10:55:27;;;;;;;3.70;2.00;;;;;;;11.04;48.97;96456.06;104681;1259;99262;-75
2024/04/19 10:57:57;;;;;;;2.10;1.60;;;;;;;11.01;49.42;96456.39;104650;1259;99366;-75
2024/04/19 11:00:24;;;;;;;3.90;1.90;;;;;;;10.90;49.36;96459.23;104732;1259;99804;-75
2024/04/19 11:02:51;;;;;;;3.00;1.50;;;;;;;10.80;48.43;96458.52;104723;1259;99371;-73
2024/04/19 11:05:17;;;;;;;2.80;1.50;;;;;;;10.65;48.79;96464.76;104655;1259;99251;-73
2024/04/19 11:07:44;;;;;;;4.70;2.20;;;;;;;10.40;48.78;96496.38;104628;1257;99348;-75
2024/04/19 11:10:10;;;;;;;2.90;1.90;;;;;;;10.01;50.18;96525.76;104736;1257;99504;-73
2024/04/19 11:12:38;;;;;;;5.50;2.10;;;;;;;9.40;51.67;96535.04;104669;1259;104020;-73
2024/04/19 11:15:05;;;;;;;5.10;2.10;;;;;;;8.97;53.10;96539.88;104682;1262;99260;-72
2024/04/19 11:17:32;;;;;;;3.50;2.30;;;;;;;8.79;53.86;96542.16;104619;1260;100482;-75
2024/04/19 11:19:59;;;;;;;4.10;2.60;;;;;;;8.67;54.51;96539.26;104645;1260;101036;-75
2024/04/19 11:22:25;;;;;;;6.90;3.10;;;;;;;8.59;55.06;96530.17;104688;1270;99257;-79
2024/04/19 11:24:54;;;;;;;3.20;2.40;;;;;;;8.54;55.43;96517.98;104743;1260;99848;-79
2024/04/19 11:27:21;;;;;;;2.40;2.20;;;;;;;8.75;56.23;96510.50;104699;1260;100885;-79
2024/04/19 11:29:48;;;;;;;3.40;2.50;;;;;;;9.17;56.41;96501.02;104640;1259;99335;-78
2024/04/19 11:32:15;;;;;;;2.60;2.10;;;;;;;9.63;55.71;96488.81;105873;1260;99267;-91
2024/04/19 11:34:47;;;;;;;2.00;1.80;;;;;;;10.02;55.51;96480.80;105856;1257;100487;-90
2024/04/19 11:37:14;;;;;;;2.70;2.10;;;;;;;10.34;54.96;96474.90;106098;1257;101189;-89
2024/04/19 11:39:44;;;;;;;3.50;1.90;;;;;;;10.66;54.68;96471.63;106430;1257;99945;-89
2024/04/19 11:42:12;;;;;;;6.30;1.80;;;;;;;10.97;54.35;96458.36;104772;1259;99328;-80
2024/04/19 11:44:39;;;;;;;4.90;2.00;;;;;;;11.21;54.08;96451.59;104666;1259;100642;-81
2024/04/19 11:47:06;;;;;;;2.60;1.80;;;;;;;11.50;53.77;96443.58;104702;1269;99370;-81
2024/04/19 11:49:33;;;;;;;3.80;2.20;;;;;;;11.70;53.32;96436.21;104654;1273;99305;-78
2024/04/19 11:52:00;;;;;;;4.50;2.20;;;;;;;11.78;53.02;96430.95;104661;1259;99253;-80
2024/04/19 11:54:31;;;;;;;2.60;2.00;;;;;;;11.92;52.85;96423.36;104697;1273;99377;-81
2024/04/19 11:56:58;;;;;;;7.80;2.60;;;;;;;12.08;52.58;96416.75;104685;1262;99696;-81
2024/04/19 11:59:24;;;;;;;2.40;1.90;;;;;;;12.21;51.68;96417.74;104703;1257;99248;-80
2024/04/19 12:01:51;;;;;;;2.30;1.80;;;;;;;12.33;51.62;96407.61;104693;1257;99187;-75
2024/04/19 12:04:19;;;;;;;3.20;1.90;;;;;;;12.46;51.43;96399.15;104676;1257;100596;-75
2024/04/19 12:06:46;;;;;;;3.20;1.70;;;;;;;12.47;50.52;96395.21;104811;1270;99813;-75
2024/04/19 12:09:13;;;;;;;2.80;1.60;;;;;;;12.43;50.53;96389.58;104749;1259;104751;-75